Time;durP1;ratioP1;P1;durP2;ratioP2;P2;SDS_P1;SDS_P2;PMS_P1;PMS_P2;Temp;Humidity;BMP_temperature;BMP_pressure;BME280_temperature;BME280_humidity;BME280_pressure;Samples;Min_cycle;Max_cycle;Signal;HPM_P1;HPM_P2
2021/10/24 04:01:34;;;;;;;6.97;5.90;;;5.00;99.90;;;;;;6231558;22;20443;-73
2021/10/24 04:04:01;;;;;;;7.23;5.43;;;5.00;99.90;;;;;;6251361;23;20407;-74
2021/10/24 04:06:27;;;;;;;6.97;5.50;;;5.00;99.90;;;;;;6250909;23;20899;-73
2021/10/24 04:08:54;;;;;;;10.77;5.20;;;4.90;99.90;;;;;;6251739;23;20414;-73
2021/10/24 04:11:22;;;;;;;5.20;4.70;;;4.80;99.90;;;;;;6251435;22;20435;-73
2021/10/24 04:13:48;;;;;;;11.60;5.50;;;4.80;99.90;;;;;;6252181;23;20417;-74
2021/10/24 04:16:15;;;;;;;5.43;4.90;;;4.80;99.90;;;;;;6252314;23;20411;-73
2021/10/24 04:18:43;;;;;;;10.27;5.67;;;4.90;99.90;;;;;;6251781;23;20414;-73
2021/10/24 04:21:10;;;;;;;6.13;5.37;;;4.90;99.90;;;;;;6252053;22;20447;-73
2021/10/24 04:23:36;;;;;;;8.10;5.33;;;4.90;99.90;;;;;;6251925;23;20426;-73
2021/10/24 04:26:03;;;;;;;6.87;5.83;;;4.90;99.90;;;;;;6251469;23;20418;-74
2021/10/24 04:28:30;;;;;;;5.23;4.83;;;4.90;99.90;;;;;;6251679;23;20411;-73
2021/10/24 04:30:57;;;;;;;7.47;5.80;;;4.80;99.90;;;;;;6252432;22;20431;-73
2021/10/24 04:33:23;;;;;;;6.10;4.97;;;4.80;99.90;;;;;;6252405;23;20419;-74
2021/10/24 04:35:52;;;;;;;9.37;5.67;;;4.80;99.90;;;;;;6252210;23;20411;-73
2021/10/24 04:38:18;;;;;;;9.83;5.80;;;4.80;99.90;;;;;;6250616;23;20414;-73
2021/10/24 04:40:46;;;;;;;7.80;5.70;;;4.70;99.90;;;;;;6250174;22;20445;-73
2021/10/24 04:43:14;;;;;;;6.20;5.47;;;4.70;99.90;;;;;;6249849;23;20454;-73
2021/10/24 04:45:40;;;;;;;6.10;5.50;;;4.70;99.90;;;;;;6249741;23;20445;-73
2021/10/24 04:48:07;;;;;;;7.30;6.60;;;4.70;99.90;;;;;;6250067;23;20418;-74
2021/10/24 04:50:34;;;;;;;8.63;7.67;;;4.60;99.90;;;;;;6249854;22;20427;-73
2021/10/24 04:53:06;;;;;;;8.10;7.07;;;4.60;99.90;;;;;;6249984;23;20411;-74
2021/10/24 04:55:33;;;;;;;8.50;6.77;;;4.60;99.90;;;;;;6250235;23;20396;-74
2021/10/24 04:58:00;;;;;;;7.07;6.43;;;4.60;99.90;;;;;;6250358;23;20417;-74
2021/10/24 05:00:27;;;;;;;8.73;7.83;;;4.60;99.90;;;;;;6249492;22;20434;-74
2021/10/24 05:02:54;;;;;;;7.40;6.70;;;4.60;99.90;;;;;;6250117;23;20395;-74
2021/10/24 05:05:21;;;;;;;11.43;7.13;;;4.60;99.90;;;;;;6250367;23;20411;-74
2021/10/24 05:07:47;;;;;;;7.70;6.80;;;4.50;99.90;;;;;;6250006;23;20415;-75
2021/10/24 05:10:15;;;;;;;9.90;7.20;;;4.50;99.90;;;;;;6252462;22;20918;-73
2021/10/24 05:12:42;;;;;;;7.60;6.47;;;4.50;99.90;;;;;;6257322;23;20407;-74
2021/10/24 05:15:09;;;;;;;8.30;6.60;;;4.50;99.90;;;;;;6252239;23;20896;-74
2021/10/24 05:17:36;;;;;;;11.30;7.30;;;4.50;99.90;;;;;;6250799;23;20437;-73
2021/10/24 05:20:05;;;;;;;9.10;6.80;;;4.40;99.90;;;;;;6250402;23;20434;-74
2021/10/24 05:22:31;;;;;;;8.97;8.17;;;4.40;99.90;;;;;;6251544;22;20438;-74
2021/10/24 05:24:58;;;;;;;12.27;10.87;;;4.40;99.90;;;;;;6251300;23;20414;-74
2021/10/24 05:27:26;;;;;;;9.37;8.57;;;4.30;99.90;;;;;;6250838;23;20417;-74
2021/10/24 05:29:53;;;;;;;12.43;10.23;;;4.40;99.90;;;;;;6250666;23;20418;-73
2021/10/24 05:32:19;;;;;;;11.90;10.40;;;4.40;99.90;;;;;;6249087;22;20431;-72
2021/10/24 05:34:46;;;;;;;10.20;9.20;;;4.40;99.90;;;;;;6251182;23;20411;-74
2021/10/24 05:37:13;;;;;;;11.90;10.73;;;4.40;99.90;;;;;;6251331;23;20444;-74
2021/10/24 05:39:40;;;;;;;10.73;9.67;;;4.40;99.90;;;;;;6251010;23;20434;-75
2021/10/24 05:42:06;;;;;;;14.60;9.77;;;4.40;99.90;;;;;;6251212;22;20498;-75
2021/10/24 05:44:34;;;;;;;10.33;9.03;;;4.40;99.90;;;;;;6251461;23;20407;-75
2021/10/24 05:47:01;;;;;;;8.60;7.53;;;4.40;99.90;;;;;;6251223;23;20753;-74
2021/10/24 05:49:28;;;;;;;10.50;9.17;;;4.40;99.90;;;;;;6251317;23;20413;-74
2021/10/24 05:51:54;;;;;;;8.67;7.87;;;4.30;99.90;;;;;;6252024;22;20429;-73
2021/10/24 05:54:21;;;;;;;8.70;7.80;;;4.30;99.90;;;;;;6252363;23;20910;-73
2021/10/24 05:56:48;;;;;;;8.60;7.33;;;4.30;99.90;;;;;;6252210;23;20413;-73
2021/10/24 05:59:15;;;;;;;8.37;6.73;;;4.30;99.90;;;;;;6251420;23;20914;-73
2021/10/24 06:01:43;;;;;;;10.37;8.43;;;4.20;99.90;;;;;;6250705;22;20438;-73
2021/10/24 06:04:09;;;;;;;8.47;7.33;;;4.30;99.90;;;;;;6251138;23;20768;-73
2021/10/24 06:06:36;;;;;;;8.53;7.63;;;4.30;99.90;;;;;;6250341;23;20591;-73
2021/10/24 06:09:04;;;;;;;9.47;7.20;;;4.30;99.90;;;;;;6251028;23;20414;-73
2021/10/24 06:11:35;;;;;;;12.00;8.37;;;4.40;99.90;;;;;;6251007;22;20477;-73
2021/10/24 06:14:02;;;;;;;11.00;8.63;;;4.40;99.90;;;;;;6250158;23;20395;-74
2021/10/24 06:16:29;;;;;;;11.30;8.00;;;4.30;99.90;;;;;;6251269;23;20464;-73
2021/10/24 06:18:57;;;;;;;9.10;7.63;;;4.40;99.90;;;;;;6250662;23;20421;-73
2021/10/24 06:21:24;;;;;;;9.43;7.70;;;4.40;99.90;;;;;;6250246;22;20438;-73
2021/10/24 06:23:50;;;;;;;8.23;7.20;;;4.40;99.90;;;;;;6250099;23;20418;-74
2021/10/24 06:26:17;;;;;;;10.83;7.37;;;4.40;99.90;;;;;;6251226;23;20465;-73
2021/10/24 06:28:44;;;;;;;9.53;7.60;;;4.50;99.90;;;;;;6251210;23;20887;-73
2021/10/24 06:31:10;;;;;;;8.50;7.80;;;4.50;99.90;;;;;;6250013;22;20427;-74
2021/10/24 06:33:37;;;;;;;8.80;6.93;;;4.60;99.90;;;;;;6250379;23;20410;-73
2021/10/24 06:36:05;;;;;;;10.93;7.80;;;4.60;99.90;;;;;;6249372;23;20411;-73
2021/10/24 06:38:33;;;;;;;8.73;7.13;;;4.60;99.90;;;;;;6250130;23;20418;-74
2021/10/24 06:41:00;;;;;;;7.77;6.83;;;4.60;99.90;;;;;;6252001;22;20438;-74
2021/10/24 06:43:26;;;;;;;9.37;7.13;;;4.70;99.90;;;;;;6252820;23;20466;-74
2021/10/24 06:45:53;;;;;;;7.73;6.97;;;4.80;99.90;;;;;;6251538;23;20407;-74
2021/10/24 06:48:20;;;;;;;10.10;7.10;;;4.90;99.90;;;;;;6252744;23;20411;-74
2021/10/24 06:50:46;;;;;;;8.90;8.00;;;5.00;99.90;;;;;;6252081;22;20426;-73
2021/10/24 06:53:14;;;;;;;14.10;7.20;;;5.00;99.90;;;;;;6250748;23;20938;-74
2021/10/24 06:55:41;;;;;;;9.60;7.13;;;5.10;99.90;;;;;;6250926;23;20411;-74
2021/10/24 06:58:08;;;;;;;8.37;7.47;;;5.30;99.90;;;;;;6251160;23;20412;-74
2021/10/24 07:00:35;;;;;;;8.10;7.13;;;5.70;99.90;;;;;;6250060;22;20442;-73
2021/10/24 07:03:02;;;;;;;7.20;6.20;;;6.20;99.90;;;;;;6251185;23;20498;-74
2021/10/24 07:05:28;;;;;;;9.13;5.57;;;7.00;99.90;;;;;;6250780;23;20510;-74
2021/10/24 07:07:55;;;;;;;5.83;5.30;;;8.10;99.90;;;;;;6249542;23;20411;-74
2021/10/24 07:10:23;;;;;;;9.70;5.60;;;9.60;99.90;;;;;;6251785;22;20406;-74
2021/10/24 07:12:53;;;;;;;6.07;5.57;;;11.10;99.90;;;;;;6250736;23;20414;-74
2021/10/24 07:15:21;;;;;;;7.40;5.40;;;12.30;99.90;;;;;;6249803;23;20434;-75
2021/10/24 07:17:50;;;;;;;6.27;5.67;;;13.60;99.90;;;;;;6247657;23;20929;-75
2021/10/24 07:20:16;;;;;;;8.53;5.60;;;14.80;99.90;;;;;;6248489;22;20435;-74
2021/10/24 07:22:44;;;;;;;7.83;5.73;;;15.90;97.10;;;;;;6260179;23;20726;-75
2021/10/24 07:25:11;;;;;;;7.00;5.43;;;17.00;94.50;;;;;;6249215;23;20486;-75
2021/10/24 07:27:40;;;;;;;7.87;5.13;;;17.90;90.20;;;;;;6249282;23;20418;-75
2021/10/24 07:30:09;;;;;;;9.27;5.70;;;18.80;85.80;;;;;;6249827;23;20477;-75
2021/10/24 07:32:37;;;;;;;5.77;5.27;;;19.40;80.80;;;;;;6249220;23;20969;-75
2021/10/24 07:35:04;;;;;;;5.70;5.00;;;19.70;76.60;;;;;;6249074;23;20469;-75
2021/10/24 07:37:30;;;;;;;7.93;5.87;;;19.50;74.40;;;;;;6249229;23;20418;-75
2021/10/24 07:39:57;;;;;;;6.47;5.73;;;19.30;74.80;;;;;;6247904;23;20414;-75
2021/10/24 07:42:24;;;;;;;5.80;5.30;;;20.10;72.00;;;;;;6257979;22;20439;-75
2021/10/24 07:44:52;;;;;;;6.43;5.30;;;19.80;70.60;;;;;;6247602;23;20421;-75
2021/10/24 07:47:19;;;;;;;5.63;5.10;;;20.20;68.60;;;;;;6247840;23;20411;-75
2021/10/24 07:49:46;;;;;;;5.93;5.23;;;21.20;68.30;;;;;;6247592;23;20407;-76
2021/10/24 07:52:13;;;;;;;6.17;5.57;;;21.70;66.50;;;;;;6248440;22;20488;-76
2021/10/24 07:54:41;;;;;;;6.60;5.63;;;21.70;64.10;;;;;;6248677;23;20421;-76
2021/10/24 07:57:07;;;;;;;6.93;5.43;;;21.40;64.50;;;;;;6247681;23;20433;-75
2021/10/24 07:59:34;;;;;;;6.60;5.20;;;22.00;62.30;;;;;;6247507;23;20407;-76
2021/10/24 08:02:02;;;;;;;5.07;4.67;;;22.40;62.00;;;;;;6247031;22;20439;-75
2021/10/24 08:04:33;;;;;;;6.67;5.97;;;22.70;60.10;;;;;;6247106;23;20706;-75
2021/10/24 08:07:00;;;;;;;6.53;6.00;;;22.20;60.10;;;;;;6247389;23;20417;-75
2021/10/24 08:09:26;;;;;;;7.20;5.50;;;22.40;59.20;;;;;;6247249;23;20415;-75
2021/10/24 08:11:53;;;;;;;6.00;5.50;;;22.60;59.40;;;;;;6247427;22;20457;-75
2021/10/24 08:14:20;;;;;;;5.90;5.33;;;23.20;58.00;;;;;;6247018;23;20438;-75
2021/10/24 08:16:47;;;;;;;6.20;5.23;;;23.20;57.40;;;;;;6247134;23;20418;-75
2021/10/24 08:19:16;;;;;;;5.90;5.30;;;23.50;56.00;;;;;;6247413;23;20415;-75
2021/10/24 08:21:43;;;;;;;6.57;5.97;;;23.80;55.80;;;;;;6247255;22;20526;-75
2021/10/24 08:24:10;;;;;;;6.40;5.80;;;24.40;54.80;;;;;;6247117;23;20411;-75
2021/10/24 08:26:36;;;;;;;6.10;5.50;;;23.30;55.00;;;;;;6247147;23;20411;-75
2021/10/24 08:29:03;;;;;;;7.00;5.60;;;23.30;55.40;;;;;;6247116;23;20418;-75
2021/10/24 08:31:30;;;;;;;5.80;5.27;;;23.20;56.30;;;;;;6247134;22;20442;-75
2021/10/24 08:33:58;;;;;;;6.10;5.50;;;23.30;55.00;;;;;;6246985;23;20443;-75
2021/10/24 08:36:28;;;;;;;8.47;6.07;;;23.50;55.30;;;;;;6246960;23;20468;-76
2021/10/24 08:38:56;;;;;;;6.30;5.70;;;24.00;54.90;;;;;;6247046;23;20711;-76
2021/10/24 08:41:26;;;;;;;6.20;5.70;;;24.50;54.10;;;;;;6246763;22;20501;-74
2021/10/24 08:43:54;;;;;;;6.00;5.50;;;24.70;53.80;;;;;;6246946;23;20395;-76
2021/10/24 08:46:22;;;;;;;10.57;5.97;;;25.20;52.70;;;;;;6247185;23;20457;-77
2021/10/24 08:48:50;;;;;;;7.60;6.90;;;25.20;52.70;;;;;;6246856;23;20768;-76
2021/10/24 08:51:17;;;;;;;6.87;6.27;;;25.00;53.90;;;;;;6246631;22;20431;-75
2021/10/24 08:53:47;;;;;;;6.67;6.00;;;25.10;53.60;;;;;;6246879;23;20411;-76
2021/10/24 08:56:16;;;;;;;6.93;6.30;;;25.30;53.20;;;;;;6246430;23;20777;-76
2021/10/24 08:58:42;;;;;;;5.97;5.47;;;25.50;51.20;;;;;;6246718;23;20445;-76
2021/10/24 09:01:09;;;;;;;5.70;5.20;;;25.40;50.70;;;;;;6246229;22;20446;-77
2021/10/24 09:03:36;;;;;;;6.43;5.83;;;24.70;50.70;;;;;;6246708;23;20411;-76
2021/10/24 09:06:05;;;;;;;6.83;6.17;;;25.00;52.10;;;;;;6246680;23;20786;-75
2021/10/24 09:08:32;;;;;;;7.50;6.80;;;24.60;52.30;;;;;;6246434;23;20804;-75
2021/10/24 09:11:02;;;;;;;6.60;5.90;;;24.90;51.80;;;;;;6246694;22;20431;-76
2021/10/24 09:13:31;;;;;;;6.23;5.73;;;25.70;51.70;;;;;;6246597;23;20464;-75
2021/10/24 09:16:00;;;;;;;7.87;6.60;;;25.40;51.20;;;;;;6246661;23;20814;-76
2021/10/24 09:18:31;;;;;;;7.07;6.47;;;25.50;50.60;;;;;;6246196;23;20892;-76
2021/10/24 09:21:18;;;;;;;6.60;5.97;;;25.40;50.50;;;;;;6246393;22;20438;-76
2021/10/24 09:23:45;;;;;;;6.57;5.77;;;25.20;51.70;;;;;;6246482;23;20399;-77
2021/10/24 09:26:22;;;;;;;6.43;5.83;;;25.30;51.00;;;;;;6246624;23;20418;-74
2021/10/24 09:29:03;;;;;;;7.00;6.50;;;25.50;51.30;;;;;;6246644;23;20395;-76
2021/10/24 09:31:31;;;;;;;6.90;5.60;;;25.20;51.10;;;;;;6246556;22;20750;-76
2021/10/24 09:34:14;;;;;;;7.07;6.37;;;25.30;50.70;;;;;;6246808;23;20422;-75
2021/10/24 09:36:49;;;;;;;6.30;5.90;;;25.70;50.40;;;;;;6247326;23;20395;-75
2021/10/24 09:39:16;;;;;;;6.97;6.30;;;25.90;51.10;;;;;;6246747;23;20410;-75
2021/10/24 09:41:44;;;;;;;6.37;5.97;;;25.80;50.10;;;;;;6246616;22;20439;-74
2021/10/24 09:44:16;;;;;;;6.90;6.30;;;25.90;50.50;;;;;;6246504;23;20418;-75
2021/10/24 09:46:56;;;;;;;11.30;6.87;;;26.10;49.90;;;;;;6246872;23;20418;-75
2021/10/24 09:49:24;;;;;;;6.50;5.90;;;26.60;49.50;;;;;;6246826;23;20453;-75
2021/10/24 09:51:51;;;;;;;6.30;5.53;;;27.20;49.30;;;;;;6246666;22;20427;-75
2021/10/24 09:54:23;;;;;;;6.43;5.70;;;26.80;49.40;;;;;;6246468;23;20434;-76
2021/10/24 09:56:52;;;;;;;6.93;5.80;;;26.70;48.50;;;;;;6246422;23;20559;-76
2021/10/24 09:59:21;;;;;;;6.77;6.27;;;26.50;49.50;;;;;;6246436;23;20410;-76
2021/10/24 10:01:50;;;;;;;5.50;5.00;;;26.30;49.20;;;;;;6245908;22;20442;-77
2021/10/24 10:04:18;;;;;;;5.13;4.70;;;26.60;48.40;;;;;;6246430;23;20415;-77
2021/10/24 10:06:47;;;;;;;5.17;4.30;;;26.20;48.80;;;;;;6246430;23;20411;-75
2021/10/24 10:09:14;;;;;;;4.80;4.37;;;26.70;49.30;;;;;;6246673;23;20411;-75
2021/10/24 10:11:48;;;;;;;5.97;4.80;;;26.50;49.10;;;;;;6247512;22;20430;-77
2021/10/24 10:14:20;;;;;;;5.50;5.10;;;26.70;48.40;;;;;;6248633;23;20401;-76
2021/10/24 10:16:53;;;;;;;6.27;4.97;;;27.10;48.40;;;;;;6247889;23;20403;-76
2021/10/24 10:19:30;;;;;;;6.37;5.03;;;27.20;48.40;;;;;;6248102;23;20395;-75
2021/10/24 10:21:57;;;;;;;7.47;5.10;;;26.50;47.70;;;;;;6248889;22;20446;-75
2021/10/24 10:24:43;;;;;;;6.00;5.50;;;26.90;48.20;;;;;;6248350;23;20411;-75
2021/10/24 10:27:39;;;;;;;6.07;5.47;;;27.10;47.60;;;;;;6249544;23;20430;-77
2021/10/24 10:30:09;;;;;;;6.53;5.83;;;26.80;47.70;;;;;;6247825;23;20878;-75
2021/10/24 10:32:39;;;;;;;5.50;5.07;;;26.70;48.00;;;;;;6248173;22;20422;-75
2021/10/24 10:35:08;;;;;;;5.70;5.20;;;26.50;48.40;;;;;;6248444;23;20407;-72
2021/10/24 10:37:55;;;;;;;8.17;6.20;;;25.60;49.80;;;;;;6248402;23;20748;-72
2021/10/24 10:40:24;;;;;;;6.60;5.97;;;24.60;50.20;;;;;;6248220;22;20481;-74
2021/10/24 10:42:53;;;;;;;6.87;6.30;;;23.80;51.90;;;;;;6247938;23;20434;-75
2021/10/24 10:45:46;;;;;;;6.63;6.10;;;21.70;53.10;;;;;;6248060;23;20433;-76
2021/10/24 10:48:28;;;;;;;9.23;5.97;;;21.50;55.70;;;;;;6248269;23;20456;-76
2021/10/24 10:51:03;;;;;;;5.50;5.07;;;21.40;56.80;;;;;;6248094;22;20484;-76
2021/10/24 10:54:02;;;;;;;5.90;5.30;;;21.50;57.20;;;;;;6248095;23;20470;-75
2021/10/24 10:56:48;;;;;;;6.47;5.43;;;21.30;56.00;;;;;;6247979;23;20410;-75
2021/10/24 10:59:29;;;;;;;7.00;5.80;;;20.90;57.60;;;;;;6243258;23;20422;-75
2021/10/24 11:02:26;;;;;;;6.10;5.50;;;20.00;58.00;;;;;;6247510;22;20443;-74
2021/10/24 11:04:55;;;;;;;5.90;5.40;;;19.70;59.90;;;;;;6248114;23;20445;-74
2021/10/24 11:07:37;;;;;;;5.13;4.80;;;19.60;59.70;;;;;;6248542;23;20737;-75
2021/10/24 11:10:05;;;;;;;5.40;5.00;;;19.50;59.90;;;;;;6248231;23;20725;-75
2021/10/24 11:12:43;;;;;;;5.20;4.77;;;19.30;59.20;;;;;;6247839;22;20427;-74
2021/10/24 11:15:15;;;;;;;5.10;4.60;;;19.20;64.40;;;;;;6247866;23;20406;-75
2021/10/24 11:17:46;;;;;;;5.83;5.33;;;18.80;62.10;;;;;;6247795;23;20399;-74
2021/10/24 11:20:43;;;;;;;5.10;4.60;;;18.90;63.20;;;;;;6248003;23;20465;-75
2021/10/24 11:23:30;;;;;;;4.90;4.33;;;18.90;62.10;;;;;;6248058;23;20430;-75
2021/10/24 11:25:59;;;;;;;5.70;5.17;;;18.50;65.20;;;;;;6247852;23;20402;-75
2021/10/24 11:28:28;;;;;;;5.30;4.80;;;18.50;64.40;;;;;;6249046;23;20406;-76
2021/10/24 11:31:06;;;;;;;5.90;5.00;;;18.10;63.80;;;;;;6254830;22;20445;-75
2021/10/24 11:33:47;;;;;;;5.70;5.20;;;18.20;64.70;;;;;;6254986;23;20844;-74
2021/10/24 11:36:19;;;;;;;5.50;5.00;;;17.60;64.40;;;;;;6250058;23;20878;-75
2021/10/24 11:38:46;;;;;;;5.33;4.53;;;17.70;67.60;;;;;;6247927;23;20392;-75
2021/10/24 11:41:20;;;;;;;5.27;4.77;;;17.70;67.30;;;;;;6247205;22;20974;-75
2021/10/24 11:43:48;;;;;;;4.83;4.43;;;17.90;65.70;;;;;;6248090;23;20411;-75
2021/10/24 11:46:15;;;;;;;5.10;4.70;;;18.10;65.90;;;;;;6247644;23;20419;-75
2021/10/24 11:48:43;;;;;;;5.70;4.70;;;18.10;64.80;;;;;;6248546;23;20433;-76
2021/10/24 11:51:11;;;;;;;4.40;4.10;;;18.20;64.80;;;;;;6247618;22;20430;-75
2021/10/24 11:53:40;;;;;;;5.50;5.00;;;17.90;66.50;;;;;;6257646;23;20451;-75
2021/10/24 11:56:09;;;;;;;5.07;4.57;;;18.00;66.00;;;;;;6247530;23;20461;-75
2021/10/24 11:58:53;;;;;;;8.50;4.80;;;18.00;67.40;;;;;;6247170;23;20749;-75
2021/10/24 12:01:21;;;;;;;6.23;4.30;;;18.00;66.80;;;;;;6247490;22;20524;-75
2021/10/24 12:03:56;;;;;;;5.90;5.07;;;17.80;67.30;;;;;;6247346;23;20498;-75
2021/10/24 12:06:49;;;;;;;5.27;4.83;;;17.40;67.10;;;;;;6247261;23;20409;-75
2021/10/24 12:09:26;;;;;;;7.40;4.87;;;17.50;67.90;;;;;;6247824;23;20411;-75
2021/10/24 12:11:53;;;;;;;7.67;4.73;;;17.70;69.40;;;;;;6247231;22;20434;-75
2021/10/24 12:14:19;;;;;;;5.07;4.57;;;17.80;69.40;;;;;;6247077;23;20419;-75
2021/10/24 12:16:46;;;;;;;5.07;4.67;;;17.70;69.10;;;;;;6247528;23;20411;-75
2021/10/24 12:19:29;;;;;;;4.53;4.00;;;17.80;69.30;;;;;;6247568;23;20414;-75
2021/10/24 12:22:05;;;;;;;5.07;4.57;;;18.20;67.90;;;;;;6247387;22;20441;-75
2021/10/24 12:24:42;;;;;;;6.87;5.07;;;18.30;67.20;;;;;;6247536;23;20483;-75
2021/10/24 12:27:16;;;;;;;9.23;4.60;;;18.30;67.40;;;;;;6247498;23;20399;-75
2021/10/24 12:29:55;;;;;;;4.83;3.97;;;18.30;68.80;;;;;;6247012;23;20692;-76
2021/10/24 12:32:22;;;;;;;3.90;3.60;;;18.60;67.70;;;;;;6246939;22;20427;-75
2021/10/24 12:35:00;;;;;;;5.00;4.50;;;18.50;67.60;;;;;;6247360;23;20414;-76
2021/10/24 12:37:27;;;;;;;4.50;4.07;;;18.30;69.30;;;;;;6247166;23;20399;-75
2021/10/24 12:40:17;;;;;;;5.20;4.67;;;18.60;67.50;;;;;;6247259;23;20440;-76
2021/10/24 12:42:44;;;;;;;4.00;3.60;;;18.70;65.80;;;;;;6246923;23;20431;-76
2021/10/24 12:45:16;;;;;;;4.83;4.33;;;18.70;68.60;;;;;;6247150;23;20417;-75
2021/10/24 12:47:54;;;;;;;5.40;4.00;;;18.30;66.30;;;;;;6247460;23;20469;-76
2021/10/24 12:50:30;;;;;;;3.93;3.63;;;18.30;67.90;;;;;;6246725;22;20395;-75
2021/10/24 12:53:04;;;;;;;4.63;4.30;;;18.40;69.30;;;;;;6246923;23;20848;-75
2021/10/24 12:55:32;;;;;;;4.27;3.93;;;18.50;67.10;;;;;;6247678;23;20399;-76
2021/10/24 12:58:00;;;;;;;4.10;3.80;;;18.60;67.20;;;;;;6246939;23;20411;-74
2021/10/24 13:00:27;;;;;;;4.73;3.50;;;18.50;68.30;;;;;;6246304;22;20411;-73
2021/10/24 13:02:54;;;;;;;4.03;3.73;;;18.70;70.40;;;;;;6247143;23;20419;-74
2021/10/24 13:05:21;;;;;;;3.53;3.23;;;18.80;68.00;;;;;;6247176;23;20711;-74
2021/10/24 13:07:49;;;;;;;3.63;3.33;;;18.80;68.30;;;;;;6247195;23;20446;-74
2021/10/24 13:10:16;;;;;;;4.37;3.97;;;18.90;67.60;;;;;;6247150;22;20415;-73
2021/10/24 13:12:43;;;;;;;3.70;3.27;;;19.00;66.90;;;;;;6246888;23;20923;-75
2021/10/24 13:15:10;;;;;;;4.43;4.00;;;18.90;68.70;;;;;;6247012;23;20437;-75
2021/10/24 13:17:36;;;;;;;5.27;3.97;;;19.00;67.90;;;;;;6247475;23;20533;-74
2021/10/24 13:20:04;;;;;;;4.53;3.90;;;18.90;66.90;;;;;;6247064;23;20414;-75
2021/10/24 13:25:16;;;;;;;5.17;3.77;;;18.80;70.20;;;;;;6247431;23;20429;-75
2021/10/24 13:27:43;;;;;;;5.13;4.63;;;18.80;69.70;;;;;;6246509;23;20415;-75
2021/10/24 13:30:10;;;;;;;3.90;3.60;;;18.90;69.50;;;;;;6246826;23;20746;-75
2021/10/24 13:32:37;;;;;;;4.93;4.43;;;19.10;67.70;;;;;;6247218;22;20434;-76
2021/10/24 13:35:04;;;;;;;8.83;7.97;;;19.00;67.20;;;;;;6246894;23;20411;-75
2021/10/24 13:37:31;;;;;;;7.70;6.17;;;19.00;70.00;;;;;;6246763;23;20411;-72
2021/10/24 13:39:58;;;;;;;6.10;4.63;;;19.00;67.60;;;;;;6246661;23;20434;-71
2021/10/24 13:42:26;;;;;;;33.63;23.03;;;19.00;69.90;;;;;;6246457;22;20439;-71
2021/10/24 13:44:52;;;;;;;6.77;5.10;;;18.90;68.00;;;;;;6246760;23;20411;-71
2021/10/24 13:47:20;;;;;;;3.80;3.50;;;18.80;68.50;;;;;;6247054;23;20415;-72
2021/10/24 13:49:46;;;;;;;4.60;4.17;;;18.80;68.40;;;;;;6248374;23;20411;-71
2021/10/24 13:52:13;;;;;;;13.83;8.00;;;18.80;68.00;;;;;;6246994;22;20442;-71
2021/10/24 13:54:40;;;;;;;7.47;4.63;;;18.90;69.70;;;;;;6247535;23;20748;-71
2021/10/24 13:57:07;;;;;;;10.57;7.40;;;18.80;68.60;;;;;;6248798;23;20415;-71
2021/10/24 13:59:36;;;;;;;4.50;4.10;;;18.70;70.90;;;;;;6248944;23;20437;-75
2021/10/24 14:02:03;;;;;;;3.30;3.10;;;18.60;68.20;;;;;;6248442;22;20474;-75
2021/10/24 14:04:30;;;;;;;8.10;5.30;;;18.50;70.80;;;;;;6249345;23;20746;-75
2021/10/24 14:06:56;;;;;;;7.37;5.80;;;18.70;70.80;;;;;;6248858;23;20506;-75
2021/10/24 14:09:23;;;;;;;4.07;3.77;;;19.00;69.60;;;;;;6249191;23;20417;-75
2021/10/24 14:11:50;;;;;;;12.57;9.80;;;19.40;68.00;;;;;;6248923;22;20933;-76
2021/10/24 14:14:16;;;;;;;11.03;7.70;;;19.60;68.10;;;;;;6248989;23;20489;-76
2021/10/24 14:16:45;;;;;;;4.10;3.77;;;19.60;66.90;;;;;;6249351;23;20411;-75
2021/10/24 14:19:11;;;;;;;4.23;3.50;;;19.30;68.50;;;;;;6248722;23;20418;-77
2021/10/24 14:21:38;;;;;;;5.60;5.07;;;19.10;69.50;;;;;;6248852;22;20430;-75
2021/10/24 14:24:05;;;;;;;5.17;3.33;;;19.10;68.00;;;;;;6258685;23;20772;-76
2021/10/24 14:26:32;;;;;;;3.67;3.47;;;19.00;67.90;;;;;;6248357;23;20935;-76
2021/10/24 14:28:59;;;;;;;4.80;3.77;;;19.00;68.40;;;;;;6248859;23;20411;-76
2021/10/24 14:31:26;;;;;;;5.80;3.53;;;18.70;70.40;;;;;;6248703;22;20431;-76
2021/10/24 14:33:54;;;;;;;3.83;3.43;;;18.70;69.40;;;;;;6248657;23;20414;-76
2021/10/24 14:36:21;;;;;;;3.53;3.23;;;18.30;71.30;;;;;;6258356;23;20416;-75
2021/10/24 14:38:48;;;;;;;4.10;3.67;;;18.30;70.30;;;;;;6249078;23;20506;-75
2021/10/24 14:41:15;;;;;;;3.67;3.40;;;18.30;70.10;;;;;;6248213;22;20971;-76
2021/10/24 14:43:41;;;;;;;3.20;2.90;;;18.10;70.10;;;;;;6248617;23;20431;-76
2021/10/24 14:46:08;;;;;;;3.33;3.03;;;17.80;70.10;;;;;;6248539;23;20411;-76
2021/10/24 14:48:35;;;;;;;3.70;3.40;;;17.70;72.80;;;;;;6248622;23;20446;-76
2021/10/24 14:51:03;;;;;;;6.50;3.37;;;17.50;76.30;;;;;;6248165;22;20430;-75
2021/10/24 14:53:30;;;;;;;3.50;2.90;;;17.40;78.20;;;;;;6248395;23;20411;-75
2021/10/24 14:55:57;;;;;;;6.50;3.63;;;17.20;79.40;;;;;;6247983;23;20502;-74
2021/10/24 14:58:24;;;;;;;4.07;3.63;;;17.20;76.40;;;;;;6248505;23;20417;-74
2021/10/24 15:00:51;;;;;;;4.73;4.00;;;17.10;78.10;;;;;;6248200;22;20447;-72
2021/10/24 15:03:17;;;;;;;4.17;3.80;;;16.80;75.90;;;;;;6248099;23;20466;-71
2021/10/24 15:05:44;;;;;;;7.97;3.20;;;16.70;74.80;;;;;;6247755;23;20411;-71
2021/10/24 15:08:12;;;;;;;4.70;3.97;;;16.70;77.00;;;;;;6248263;23;20414;-72
2021/10/24 15:10:39;;;;;;;4.27;3.40;;;16.70;79.00;;;;;;6247969;22;20438;-73
2021/10/24 15:13:06;;;;;;;5.00;3.37;;;16.60;82.70;;;;;;6247955;23;20414;-72
2021/10/24 15:15:40;;;;;;;4.97;3.43;;;16.50;83.50;;;;;;6247666;23;20910;-72
2021/10/24 15:18:08;;;;;;;4.33;3.93;;;16.40;79.30;;;;;;6247919;23;20426;-72
2021/10/24 15:23:20;;;;;;;6.33;4.00;;;16.30;81.20;;;;;;6248310;23;20777;-72
2021/10/24 15:25:47;;;;;;;3.50;3.20;;;16.30;81.90;;;;;;6248045;23;20745;-73
2021/10/24 15:28:14;;;;;;;5.63;3.50;;;16.20;81.20;;;;;;6247961;23;20415;-72
2021/10/24 15:30:41;;;;;;;4.30;4.00;;;16.20;82.10;;;;;;6247448;22;20458;-73
2021/10/24 15:33:07;;;;;;;4.80;3.87;;;16.10;81.40;;;;;;6247762;23;20412;-72
2021/10/24 15:35:34;;;;;;;4.90;4.10;;;16.00;83.30;;;;;;6248915;23;20411;-71
2021/10/24 15:38:01;;;;;;;7.43;4.27;;;15.90;82.70;;;;;;6247345;23;20896;-71
2021/10/24 15:40:29;;;;;;;4.67;4.07;;;15.90;85.10;;;;;;6247223;22;20732;-71
2021/10/24 15:42:56;;;;;;;5.83;5.43;;;15.80;82.60;;;;;;6247748;23;20434;-71
2021/10/24 15:45:22;;;;;;;4.17;3.80;;;15.80;85.40;;;;;;6247924;23;20411;-71
2021/10/24 15:47:49;;;;;;;6.27;4.73;;;15.70;86.50;;;;;;6247774;23;20421;-71
2021/10/24 15:50:16;;;;;;;5.53;4.33;;;15.70;87.40;;;;;;6247807;23;20501;-71
2021/10/24 15:52:43;;;;;;;10.20;5.17;;;15.60;89.50;;;;;;6247995;23;20454;-71
2021/10/24 15:55:12;;;;;;;6.80;6.20;;;15.50;90.40;;;;;;6248200;23;20411;-71
2021/10/24 15:57:42;;;;;;;18.80;16.87;;;15.40;90.70;;;;;;6247735;23;20411;-71
2021/10/24 16:00:10;;;;;;;20.93;17.77;;;15.30;91.10;;;;;;6263277;23;20441;-71
2021/10/24 16:02:37;;;;;;;23.10;18.30;;;15.20;92.00;;;;;;6261068;22;20467;-72
2021/10/24 16:05:04;;;;;;;24.00;16.17;;;15.10;92.40;;;;;;6259877;23;20430;-70
2021/10/24 16:07:31;;;;;;;15.17;12.47;;;15.00;93.40;;;;;;6251239;23;20415;-70
2021/10/24 16:09:59;;;;;;;8.00;6.00;;;14.90;93.90;;;;;;6247554;23;20465;-71
2021/10/24 16:12:26;;;;;;;8.23;6.17;;;14.70;93.70;;;;;;6247517;22;20434;-71
2021/10/24 16:14:54;;;;;;;8.40;6.70;;;14.60;93.20;;;;;;6247272;23;20957;-71
2021/10/24 16:17:21;;;;;;;7.03;5.80;;;14.50;93.80;;;;;;6246985;23;20923;-71
2021/10/24 16:19:48;;;;;;;5.67;4.93;;;14.40;94.00;;;;;;6246963;23;20922;-70
2021/10/24 16:22:15;;;;;;;7.00;5.47;;;14.30;94.00;;;;;;6247526;22;20509;-70
2021/10/24 16:24:42;;;;;;;5.27;4.80;;;14.20;93.60;;;;;;6247586;23;20420;-70
2021/10/24 16:27:08;;;;;;;6.07;5.57;;;14.20;94.10;;;;;;6247834;23;20411;-71
2021/10/24 16:29:35;;;;;;;5.60;5.10;;;14.20;94.30;;;;;;6247607;23;20395;-70
2021/10/24 16:32:04;;;;;;;5.80;5.17;;;14.10;94.30;;;;;;6246849;22;20441;-70
2021/10/24 16:34:30;;;;;;;5.17;4.50;;;14.00;94.40;;;;;;6247465;23;20398;-70
2021/10/24 16:36:57;;;;;;;4.50;4.20;;;14.00;94.90;;;;;;6247646;23;20418;-70
2021/10/24 16:39:24;;;;;;;5.33;4.60;;;13.90;94.70;;;;;;6247113;23;20399;-70
2021/10/24 16:41:51;;;;;;;6.70;5.33;;;13.80;95.00;;;;;;6246861;22;20438;-69
2021/10/24 16:44:17;;;;;;;5.53;4.77;;;13.80;95.30;;;;;;6247220;23;20437;-69
2021/10/24 16:46:44;;;;;;;6.03;4.57;;;13.70;95.50;;;;;;6247316;23;20411;-69
2021/10/24 16:49:12;;;;;;;7.60;5.87;;;13.70;95.70;;;;;;6247269;23;20418;-69
2021/10/24 16:51:39;;;;;;;6.03;5.37;;;13.60;96.00;;;;;;6246932;22;20731;-69
2021/10/24 16:54:06;;;;;;;5.90;5.40;;;13.60;96.20;;;;;;6247571;23;20407;-69
2021/10/24 16:56:32;;;;;;;7.60;5.17;;;13.50;96.70;;;;;;6247117;23;20446;-69
2021/10/24 16:58:59;;;;;;;6.07;5.23;;;13.40;96.80;;;;;;6247076;23;20732;-69
2021/10/24 17:01:26;;;;;;;6.37;5.20;;;13.40;97.20;;;;;;6246826;22;20462;-70
2021/10/24 17:03:53;;;;;;;8.50;5.47;;;13.30;97.50;;;;;;6247486;23;20435;-69